Time;durP1;ratioP1;P1;durP2;ratioP2;P2;SDS_P1;SDS_P2;PMS_P1;PMS_P2;Temp;Humidity;BMP_temperature;BMP_pressure;BME280_temperature;BME280_humidity;BME280_pressure;Samples;Min_cycle;Max_cycle;Signal;HPM_P1;HPM_P2
2023/03/08 00:00:00;;;;;;;0.70;0.63;;;;;;;20.52;30.82;99911.91;5023099;28;20038;-76
2023/03/08 00:02:26;;;;;;;0.55;0.47;;;;;;;20.59;30.74;99911.88;4968911;28;20056;-76
2023/03/08 00:04:54;;;;;;;0.63;0.63;;;;;;;20.51;30.85;99910.28;5010245;28;20053;-77
2023/03/08 00:07:21;;;;;;;0.43;0.28;;;;;;;20.57;30.80;99916.56;4995643;28;20095;-77
2023/03/08 00:09:46;;;;;;;0.93;0.70;;;;;;;20.51;30.84;99917.41;5018948;28;20037;-78
2023/03/08 00:12:12;;;;;;;0.60;0.60;;;;;;;20.52;30.79;99919.84;4976272;28;20048;-79
2023/03/08 00:14:38;;;;;;;0.57;0.50;;;;;;;20.47;30.70;99913.53;5013266;28;21159;-79
2023/03/08 00:17:04;;;;;;;0.88;0.65;;;;;;;20.45;30.72;99897.03;4970198;28;20038;-79
2023/03/08 00:19:31;;;;;;;0.98;0.60;;;;;;;20.51;30.89;99922.69;5011482;28;20703;-79
2023/03/08 00:21:57;;;;;;;0.50;0.50;;;;;;;20.38;30.87;99894.38;4977455;28;20064;-78
2023/03/08 00:24:23;;;;;;;2.10;0.93;;;;;;;20.43;30.92;99905.19;4991329;28;20049;-79
2023/03/08 00:26:48;;;;;;;0.82;0.60;;;;;;;20.51;30.60;99917.41;4979809;28;20065;-79
2023/03/08 00:29:14;;;;;;;0.45;0.40;;;;;;;20.54;30.82;99916.16;5019858;28;20038;-79
2023/03/08 00:31:40;;;;;;;0.50;0.50;;;;;;;20.50;30.90;99907.84;4971806;28;20064;-80
2023/03/08 00:34:06;;;;;;;0.80;0.70;;;;;;;20.48;30.86;99904.59;5015057;28;20054;-78
2023/03/08 00:36:31;;;;;;;0.70;0.60;;;;;;;20.49;30.82;99908.88;4972359;28;20526;-78
2023/03/08 00:38:57;;;;;;;1.25;0.55;;;;;;;20.51;30.86;99917.41;5002875;28;20128;-78
2023/03/08 00:41:22;;;;;;;0.45;0.40;;;;;;;20.51;30.82;99910.28;4943726;28;20060;-79
2023/03/08 00:43:49;;;;;;;0.30;0.30;;;;;;;20.45;31.03;99905.78;5020463;28;20050;-80
2023/03/08 00:46:14;;;;;;;1.30;0.80;;;;;;;20.48;30.90;99917.81;4978019;28;20038;-79
2023/03/08 00:48:41;;;;;;;1.25;0.82;;;;;;;20.49;30.85;99914.16;5020544;28;20040;-78
2023/03/08 00:51:14;;;;;;;1.17;1.02;;;;;;;20.46;30.89;99906.59;4961144;28;20128;-79
2023/03/08 00:53:40;;;;;;;0.50;0.50;;;;;;;20.50;30.84;99913.94;5023943;28;20147;-79
2023/03/08 00:56:05;;;;;;;1.00;0.73;;;;;;;20.47;30.87;99916.19;4971982;28;20051;-79
2023/03/08 00:58:31;;;;;;;0.55;0.50;;;;;;;20.47;30.93;99906.41;5021833;28;20033;-78
2023/03/08 01:00:58;;;;;;;0.35;0.35;;;;;;;20.47;30.72;99901.13;4985793;28;20041;-78
2023/03/08 01:03:25;;;;;;;0.60;0.40;;;;;;;20.43;30.90;99899.91;5004116;28;20034;-79
2023/03/08 01:05:52;;;;;;;0.57;0.55;;;;;;;20.32;30.84;99884.66;4975300;28;20046;-79
2023/03/08 01:08:20;;;;;;;1.25;0.47;;;;;;;20.50;30.86;99910.47;5021035;28;20133;-80
2023/03/08 01:10:52;;;;;;;0.52;0.38;;;;;;;20.51;30.84;99899.69;5019603;28;20037;-79
2023/03/08 01:13:19;;;;;;;0.35;0.30;;;;;;;20.38;30.89;99894.38;4998935;28;20045;-80
2023/03/08 01:15:45;;;;;;;0.43;0.40;;;;;;;20.23;30.85;99862.06;4981959;28;20050;-79
2023/03/08 01:18:11;;;;;;;0.85;0.55;;;;;;;20.44;30.78;99898.88;4987244;28;20117;-79
2023/03/08 01:20:36;;;;;;;0.50;0.45;;;;;;;20.42;30.90;99900.09;5026336;28;20049;-80
2023/03/08 01:23:02;;;;;;;0.25;0.25;;;;;;;20.45;30.87;99908.44;4969958;28;20099;-80
2023/03/08 01:25:49;;;;;;;1.25;0.80;;;;;;;20.48;30.92;99897.47;5022710;28;20543;-79
2023/03/08 01:28:33;;;;;;;0.50;0.50;;;;;;;20.44;30.86;99892.78;5004209;28;20096;-78
2023/03/08 01:31:04;;;;;;;0.45;0.40;;;;;;;20.44;30.92;99890.94;4979535;28;20488;-79
2023/03/08 01:33:44;;;;;;;0.35;0.35;;;;;;;20.42;30.94;99890.34;5023394;28;20038;-79
2023/03/08 01:36:16;;;;;;;0.52;0.52;;;;;;;20.42;30.93;99889.53;4934226;28;20042;-80
2023/03/08 01:38:58;;;;;;;0.52;0.52;;;;;;;20.38;30.99;99890.94;5024108;28;20472;-81
2023/03/08 01:41:27;;;;;;;0.25;0.25;;;;;;;20.38;31.02;99878.53;4953629;28;20099;-80
2023/03/08 01:43:53;;;;;;;0.82;0.60;;;;;;;20.34;31.04;99873.84;5008335;28;20571;-80
2023/03/08 01:46:22;;;;;;;0.50;0.50;;;;;;;20.44;30.99;99868.97;4973951;28;20037;-78
2023/03/08 01:49:00;;;;;;;0.45;0.30;;;;;;;20.13;30.87;99838.72;5022629;28;20124;-80
2023/03/08 01:52:01;;;;;;;1.20;0.55;;;;;;;20.39;30.98;99871.41;4965112;28;20057;-79
2023/03/08 01:54:32;;;;;;;0.22;0.22;;;;;;;20.34;30.96;99856.16;5013154;28;20136;-79
2023/03/08 01:57:04;;;;;;;0.93;0.45;;;;;;;20.36;30.99;99869.19;4967680;28;20044;-79
2023/03/08 01:59:33;;;;;;;0.60;0.60;;;;;;;20.33;30.76;99859.84;5024900;28;20018;-80
2023/03/08 02:01:59;;;;;;;0.88;0.63;;;;;;;20.41;30.80;99870.22;4973060;28;20152;-79
2023/03/08 02:04:25;;;;;;;0.43;0.38;;;;;;;20.32;30.99;99860.84;4999444;28;20055;-79
2023/03/08 02:06:51;;;;;;;0.77;0.50;;;;;;;20.36;30.90;99862.06;4964495;28;20060;-79
2023/03/08 02:09:21;;;;;;;0.88;0.68;;;;;;;20.27;30.97;99846.59;5005771;28;20041;-79
2023/03/08 02:11:47;;;;;;;0.47;0.40;;;;;;;20.25;31.04;99852.09;4972228;28;20069;-78
2023/03/08 02:14:13;;;;;;;1.05;0.63;;;;;;;20.37;30.95;99854.94;4984056;28;20064;-79
2023/03/08 02:16:42;;;;;;;0.52;0.52;;;;;;;20.34;30.97;99850.06;4978510;28;20038;-79
2023/03/08 02:19:35;;;;;;;0.57;0.55;;;;;;;20.24;31.06;99837.25;4979264;28;20740;-79
2023/03/08 02:22:13;;;;;;;0.25;0.25;;;;;;;20.32;30.94;99844.97;4932787;28;22418;-79
2023/03/08 02:24:38;;;;;;;0.50;0.50;;;;;;;20.32;31.10;99844.19;5010777;28;20063;-80
2023/03/08 02:27:07;;;;;;;0.40;0.40;;;;;;;20.37;30.89;99849.66;4969173;28;20049;-79
2023/03/08 02:29:33;;;;;;;0.63;0.63;;;;;;;20.28;31.03;99835.00;5022593;28;20029;-80
2023/03/08 02:31:59;;;;;;;0.75;0.75;;;;;;;20.32;30.91;99844.97;4978206;28;20521;-79
2023/03/08 02:34:24;;;;;;;0.68;0.35;;;;;;;20.40;30.87;99854.50;4993979;28;20033;-79
2023/03/08 02:36:50;;;;;;;0.50;0.40;;;;;;;20.34;30.79;99850.88;4975684;28;20041;-80
2023/03/08 02:39:16;;;;;;;0.88;0.68;;;;;;;20.38;30.83;99852.09;5023538;28;20387;-79
2023/03/08 02:41:45;;;;;;;2.10;0.82;;;;;;;20.31;31.02;99853.94;5017657;28;20037;-80
2023/03/08 02:44:12;;;;;;;0.90;0.52;;;;;;;20.33;30.97;99851.09;4988513;28;20038;-78
2023/03/08 02:46:37;;;;;;;0.68;0.60;;;;;;;20.36;30.85;99846.19;4994714;28;20049;-79
2023/03/08 02:49:03;;;;;;;0.45;0.45;;;;;;;20.28;30.82;99835.00;4992641;28;20033;-79
2023/03/08 02:51:28;;;;;;;0.30;0.25;;;;;;;20.32;30.86;99847.63;5004054;28;20053;-79
2023/03/08 02:53:56;;;;;;;0.40;0.40;;;;;;;20.26;31.09;99843.16;4953036;28;20033;-79
2023/03/08 02:56:22;;;;;;;0.95;0.60;;;;;;;20.32;31.05;99846.81;5002482;28;20040;-78
2023/03/08 02:58:47;;;;;;;1.00;0.40;;;;;;;20.31;30.86;99843.38;4961447;28;20045;-78
2023/03/08 03:01:13;;;;;;;0.50;0.50;;;;;;;20.25;30.88;99833.59;5016975;28;20041;-78
2023/03/08 03:03:40;;;;;;;0.52;0.50;;;;;;;20.33;30.91;99840.50;4960548;28;20475;-78
2023/03/08 03:06:14;;;;;;;0.15;0.10;;;;;;;20.29;30.92;99832.19;5018984;28;20038;-79
2023/03/08 03:08:42;;;;;;;0.57;0.50;;;;;;;20.28;30.96;99835.00;4960556;28;20040;-79
2023/03/08 03:11:12;;;;;;;0.47;0.47;;;;;;;20.27;30.97;99839.47;5022392;28;20500;-78
2023/03/08 03:13:38;;;;;;;0.45;0.32;;;;;;;20.12;30.96;99810.66;4961582;28;20041;-78
2023/03/08 03:16:09;;;;;;;0.30;0.28;;;;;;;20.26;30.92;99823.81;5019609;28;20044;-78
2023/03/08 03:18:35;;;;;;;1.38;0.43;;;;;;;20.25;30.66;99825.66;4960261;28;20045;-78
2023/03/08 03:21:03;;;;;;;0.25;0.25;;;;;;;20.16;31.08;99817.16;5007653;28;20037;-78
2023/03/08 03:23:29;;;;;;;0.45;0.20;;;;;;;20.24;30.98;99829.31;4958990;28;20045;-78
2023/03/08 03:25:55;;;;;;;0.40;0.30;;;;;;;20.26;30.75;99829.13;5013605;28;20046;-79
2023/03/08 03:28:21;;;;;;;0.38;0.38;;;;;;;20.27;31.12;99828.91;4975816;28;20132;-78
2023/03/08 03:30:47;;;;;;;0.80;0.50;;;;;;;20.25;30.76;99830.94;5024432;28;20092;-78
2023/03/08 03:33:13;;;;;;;0.50;0.35;;;;;;;20.28;31.03;99832.38;4974679;28;20508;-79
2023/03/08 03:35:39;;;;;;;0.82;0.40;;;;;;;20.27;30.87;99825.44;5020678;28;20037;-78
2023/03/08 03:38:07;;;;;;;0.70;0.40;;;;;;;20.19;30.89;99821.22;4975853;28;22351;-79
2023/03/08 03:40:32;;;;;;;0.75;0.60;;;;;;;20.29;30.91;99841.91;5021981;28;20143;-78
2023/03/08 03:43:01;;;;;;;0.43;0.43;;;;;;;20.24;30.95;99834.63;4964094;28;21420;-79
2023/03/08 03:45:26;;;;;;;0.35;0.30;;;;;;;20.24;30.90;99845.19;5017985;28;20042;-78
2023/03/08 03:47:52;;;;;;;0.85;0.40;;;;;;;20.20;30.84;99830.75;4963394;28;20038;-78
2023/03/08 03:50:18;;;;;;;0.38;0.20;;;;;;;20.20;31.01;99836.88;5033955;28;20033;-78
2023/03/08 03:52:58;;;;;;;0.50;0.50;;;;;;;20.27;30.87;99843.97;4991791;28;20100;-78
2023/03/08 03:55:24;;;;;;;0.30;0.28;;;;;;;20.26;30.81;99840.50;5005948;28;20046;-77
2023/03/08 03:57:50;;;;;;;0.10;0.10;;;;;;;20.24;30.91;99845.19;5003162;28;20042;-78
2023/03/08 04:00:17;;;;;;;0.25;0.25;;;;;;;20.26;30.87;99840.50;4992941;28;20029;-78
2023/03/08 04:02:50;;;;;;;0.55;0.40;;;;;;;20.17;30.84;99820.59;5004624;28;20061;-79
2023/03/08 04:05:18;;;;;;;0.20;0.20;;;;;;;20.27;30.79;99841.31;4984999;28;20037;-78
2023/03/08 04:07:48;;;;;;;0.20;0.20;;;;;;;20.20;30.88;99841.34;5018420;28;20041;-79
2023/03/08 04:10:15;;;;;;;0.20;0.20;;;;;;;20.14;31.01;99834.25;4971189;28;20041;-78
2023/03/08 04:12:42;;;;;;;0.10;0.10;;;;;;;20.22;30.82;99845.41;4993900;28;20041;-78
2023/03/08 04:15:08;;;;;;;0.77;0.52;;;;;;;20.19;30.97;99840.53;4973869;28;21400;-79
2023/03/08 04:17:33;;;;;;;0.22;0.22;;;;;;;20.26;31.07;99848.44;5010424;28;20509;-78
2023/03/08 04:20:00;;;;;;;0.68;0.22;;;;;;;20.22;30.77;99842.75;4979092;28;20045;-78
2023/03/08 04:22:28;;;;;;;1.20;0.38;;;;;;;20.20;30.97;99841.34;5003355;28;20041;-78
2023/03/08 04:25:02;;;;;;;0.38;0.20;;;;;;;20.17;30.93;99831.19;4964869;28;20045;-78
2023/03/08 04:27:38;;;;;;;1.48;0.50;;;;;;;20.13;30.95;99828.13;5025517;28;20037;-78
2023/03/08 04:30:04;;;;;;;0.30;0.30;;;;;;;20.18;30.92;99825.69;4959868;28;20037;-78
2023/03/08 04:32:31;;;;;;;0.25;0.13;;;;;;;20.18;30.82;99827.50;5026329;28;20087;-79
2023/03/08 04:34:57;;;;;;;0.20;0.10;;;;;;;20.16;30.87;99814.50;4982116;28;20049;-79
2023/03/08 04:37:26;;;;;;;0.17;0.17;;;;;;;20.15;30.90;99817.38;5025638;28;20407;-78
2023/03/08 04:39:56;;;;;;;0.98;0.43;;;;;;;20.18;30.97;99819.59;4983720;28;20040;-79
2023/03/08 04:42:24;;;;;;;0.43;0.43;;;;;;;20.13;31.03;99814.94;5020429;28;20059;-78
2023/03/08 04:44:50;;;;;;;0.10;0.10;;;;;;;20.19;30.86;99819.38;4967113;28;20130;-78
2023/03/08 04:47:19;;;;;;;0.32;0.22;;;;;;;20.09;30.90;99810.22;5003084;28;20041;-78
2023/03/08 04:49:45;;;;;;;0.20;0.20;;;;;;;20.16;30.78;99811.88;4956660;28;20038;-79
2023/03/08 04:52:11;;;;;;;0.30;0.30;;;;;;;20.19;30.77;99810.63;5024315;28;20127;-78
2023/03/08 04:54:38;;;;;;;0.20;0.20;;;;;;;20.16;30.72;99809.22;4947137;28;20033;-78
2023/03/08 04:57:15;;;;;;;0.47;0.38;;;;;;;20.09;30.94;99811.03;5003289;28;21271;-78
2023/03/08 04:59:43;;;;;;;0.30;0.13;;;;;;;20.15;30.80;99809.44;4977673;28;20087;-79
2023/03/08 05:02:09;;;;;;;0.45;0.30;;;;;;;20.05;31.05;99803.75;5020555;28;20033;-79
2023/03/08 05:04:35;;;;;;;0.68;0.40;;;;;;;20.07;30.84;99788.50;4982967;28;20037;-78
2023/03/08 05:07:01;;;;;;;0.20;0.17;;;;;;;20.15;30.83;99797.03;5019117;28;20045;-79
2023/03/08 05:09:30;;;;;;;0.17;0.17;;;;;;;20.12;30.78;99784.22;4974335;28;20369;-78
2023/03/08 05:11:57;;;;;;;0.38;0.20;;;;;;;20.14;30.91;99786.66;5024153;28;20099;-79
2023/03/08 05:14:23;;;;;;;0.20;0.20;;;;;;;20.08;30.87;99779.53;4962997;28;20029;-79
2023/03/08 05:16:49;;;;;;;0.20;0.17;;;;;;;20.07;31.02;99786.66;5022722;28;20392;-78
2023/03/08 05:19:15;;;;;;;0.25;0.22;;;;;;;20.03;30.88;99771.44;4951676;28;20404;-79
2023/03/08 05:21:46;;;;;;;0.70;0.38;;;;;;;20.12;30.87;99784.22;5005787;28;20048;-78
2023/03/08 05:24:13;;;;;;;0.15;0.15;;;;;;;20.15;30.92;99780.34;4975074;28;20042;-79
2023/03/08 05:26:39;;;;;;;0.50;0.50;;;;;;;20.13;30.84;99780.56;5004790;28;20041;-79
2023/03/08 05:29:05;;;;;;;0.73;0.45;;;;;;;20.11;30.74;99765.94;4944300;28;20041;-78
2023/03/08 05:31:32;;;;;;;0.45;0.40;;;;;;;20.09;30.81;99771.41;5017757;28;20045;-77
2023/03/08 05:34:01;;;;;;;;;;;;;;;20.11;30.88;99779.16;4969728;28;20903;-78
2023/03/08 05:36:33;;;;;;;0.30;0.20;;;;;;;20.10;30.93;99778.31;5018900;28;20406;-78
2023/03/08 05:39:00;;;;;;;0.20;0.20;;;;;;;20.11;30.83;99769.38;4972096;28;20041;-77
2023/03/08 05:41:35;;;;;;;0.45;0.45;;;;;;;20.12;30.91;99778.13;5006539;28;21795;-77
2023/03/08 05:44:01;;;;;;;0.28;0.28;;;;;;;20.10;30.64;99775.66;4969512;28;20038;-77
2023/03/08 05:46:29;;;;;;;0.45;0.30;;;;;;;20.08;30.95;99777.72;5021569;28;20114;-77
2023/03/08 05:48:54;;;;;;;0.43;0.43;;;;;;;20.13;30.73;99772.63;4975662;28;20040;-78
2023/03/08 05:51:20;;;;;;;0.30;0.30;;;;;;;20.07;30.91;99756.78;5007339;28;20042;-77
2023/03/08 05:53:46;;;;;;;0.70;0.50;;;;;;;20.12;30.82;99764.91;4948186;28;20064;-77
2023/03/08 05:56:17;;;;;;;0.20;0.20;;;;;;;20.06;30.92;99763.09;4999814;28;20037;-77
2023/03/08 05:58:49;;;;;;;0.38;0.38;;;;;;;20.03;30.81;99766.13;5012894;28;20105;-77
2023/03/08 06:01:22;;;;;;;0.20;0.20;;;;;;;20.03;30.97;99774.06;4964617;28;20582;-78
2023/03/08 06:03:50;;;;;;;0.40;0.40;;;;;;;20.04;30.95;99765.94;5021414;28;20438;-77
2023/03/08 06:06:18;;;;;;;0.47;0.45;;;;;;;19.84;30.88;99713.13;4956023;28;20661;-78
2023/03/08 06:08:45;;;;;;;0.28;0.20;;;;;;;20.10;30.85;99751.06;5020155;28;20048;-77
2023/03/08 06:11:12;;;;;;;0.50;0.47;;;;;;;20.02;30.82;99740.72;4963258;28;20075;-77
2023/03/08 06:13:39;;;;;;;0.30;0.30;;;;;;;20.11;30.92;99737.69;5018656;28;20034;-77
2023/03/08 06:16:06;;;;;;;0.65;0.47;;;;;;;20.09;30.73;99733.59;4970726;28;20631;-77
2023/03/08 06:18:32;;;;;;;0.70;0.65;;;;;;;20.08;30.86;99727.50;5022511;28;20079;-77
2023/03/08 06:21:11;;;;;;;1.08;0.60;;;;;;;20.10;30.77;99722.00;4969697;28;20048;-78
2023/03/08 06:23:38;;;;;;;0.38;0.38;;;;;;;20.08;30.70;99724.84;5004834;28;20433;-78
2023/03/08 06:26:06;;;;;;;0.45;0.40;;;;;;;20.09;30.76;99717.72;4968922;28;20064;-78
2023/03/08 06:28:33;;;;;;;0.55;0.55;;;;;;;20.02;30.91;99709.84;5015467;28;20030;-78
2023/03/08 06:30:59;;;;;;;0.93;0.68;;;;;;;20.05;30.84;99716.53;4973937;28;20476;-77
2023/03/08 06:33:27;;;;;;;0.55;0.40;;;;;;;20.04;30.88;99717.56;5014674;28;20044;-79
2023/03/08 06:35:58;;;;;;;0.70;0.70;;;;;;;20.02;30.93;99715.13;4970859;28;20044;-79
2023/03/08 06:38:26;;;;;;;1.40;0.90;;;;;;;19.99;30.72;99709.44;5018475;28;20455;-79
2023/03/08 06:40:52;;;;;;;0.52;0.52;;;;;;;20.03;30.97;99719.38;4969786;28;20109;-80
2023/03/08 06:43:18;;;;;;;0.43;0.43;;;;;;;20.03;30.82;99713.28;4999910;28;20195;-80
2023/03/08 06:45:44;;;;;;;0.40;0.40;;;;;;;20.01;30.87;99705.56;4968146;28;20037;-78
2023/03/08 06:48:09;;;;;;;0.60;0.60;;;;;;;20.00;30.87;99705.78;5014074;28;20046;-80
2023/03/08 06:50:35;;;;;;;0.40;0.40;;;;;;;20.01;30.70;99715.34;4960903;28;20042;-79
2023/03/08 06:53:01;;;;;;;0.43;0.43;;;;;;;19.94;30.90;99699.50;5019585;28;20042;-77
2023/03/08 06:55:43;;;;;;;0.60;0.60;;;;;;;20.03;30.82;99714.09;4964066;28;20111;-78
2023/03/08 06:58:09;;;;;;;0.40;0.40;;;;;;;19.99;30.88;99712.91;5021867;28;20487;-78
2023/03/08 07:00:34;;;;;;;1.00;0.80;;;;;;;19.97;30.85;99711.47;4970954;28;20045;-77
2023/03/08 07:03:00;;;;;;;1.23;0.80;;;;;;;20.00;30.83;99719.00;5018797;28;20060;-78
2023/03/08 07:05:26;;;;;;;0.98;0.80;;;;;;;20.05;30.68;99722.63;4972249;28;20048;-78
2023/03/08 07:07:52;;;;;;;0.65;0.63;;;;;;;20.02;30.83;99722.25;5016607;28;20092;-78
2023/03/08 07:10:20;;;;;;;0.30;0.30;;;;;;;20.01;30.90;99724.06;4968049;28;20065;-78
2023/03/08 07:12:49;;;;;;;0.85;0.85;;;;;;;20.04;30.80;99722.84;5019979;28;20495;-78
2023/03/08 07:15:17;;;;;;;0.70;0.70;;;;;;;20.04;30.91;99722.84;4965524;28;20962;-78
2023/03/08 07:17:45;;;;;;;0.75;0.70;;;;;;;19.97;30.94;99722.06;5017383;28;20045;-77
2023/03/08 07:20:12;;;;;;;0.40;0.40;;;;;;;20.01;30.89;99721.44;4974041;28;20040;-78
2023/03/08 07:22:40;;;;;;;1.05;0.70;;;;;;;20.03;30.84;99714.09;5020341;28;20041;-77
2023/03/08 07:25:07;;;;;;;0.85;0.57;;;;;;;19.97;30.68;99707.00;4972516;28;20357;-77
2023/03/08 07:27:33;;;;;;;0.80;0.80;;;;;;;20.02;30.68;99703.75;5018262;28;20050;-80
2023/03/08 07:29:58;;;;;;;0.90;0.73;;;;;;;20.07;30.83;99715.31;4986517;28;20048;-77
2023/03/08 07:32:27;;;;;;;0.55;0.55;;;;;;;20.12;30.87;99712.88;5002121;28;20051;-79
2023/03/08 07:34:56;;;;;;;0.98;0.73;;;;;;;20.38;30.36;99709.31;5007097;28;20045;-79
2023/03/08 07:37:22;;;;;;;0.88;0.88;;;;;;;20.70;29.69;99691.69;5000835;28;20040;-80
2023/03/08 07:39:47;;;;;;;0.40;0.40;;;;;;;21.26;29.15;99716.56;4992456;28;20042;-79
2023/03/08 07:42:13;;;;;;;0.45;0.32;;;;;;;21.50;28.85;99701.69;4999890;28;21766;-80
2023/03/08 07:44:42;;;;;;;0.70;0.50;;;;;;;21.59;28.90;99718.97;5018857;28;20064;-79
2023/03/08 07:47:08;;;;;;;1.52;0.77;;;;;;;21.45;28.90;99712.16;4975190;28;20503;-79
2023/03/08 07:49:34;;;;;;;0.40;0.40;;;;;;;21.39;29.03;99719.94;5016599;28;20033;-79
2023/03/08 07:52:00;;;;;;;0.60;0.60;;;;;;;21.33;29.14;99701.44;4968760;28;20830;-79
2023/03/08 07:54:25;;;;;;;0.50;0.50;;;;;;;21.34;29.34;99716.28;5017636;28;20061;-79
2023/03/08 07:56:52;;;;;;;0.52;0.50;;;;;;;21.33;29.17;99718.13;4925701;28;20129;-79
2023/03/08 07:59:18;;;;;;;0.82;0.80;;;;;;;21.25;29.31;99723.72;5020400;28;20034;-79
2023/03/08 08:01:44;;;;;;;0.50;0.50;;;;;;;21.22;29.44;99715.38;4987743;28;20068;-80
2023/03/08 08:04:11;;;;;;;1.00;0.52;;;;;;;21.23;29.66;99720.44;5008230;28;20491;-79
2023/03/08 08:06:38;;;;;;;0.80;0.70;;;;;;;21.21;29.58;99717.19;4979492;28;20042;-79
2023/03/08 08:09:04;;;;;;;0.85;0.70;;;;;;;21.19;29.75;99723.75;5014262;28;20049;-78
2023/03/08 08:11:30;;;;;;;0.75;0.75;;;;;;;21.11;29.56;99720.31;4987420;28;20050;-78
2023/03/08 08:13:55;;;;;;;1.42;0.73;;;;;;;21.10;29.90;99716.03;4985594;28;20045;-78
2023/03/08 08:16:21;;;;;;;0.50;0.50;;;;;;;21.08;29.85;99715.44;5017047;28;20113;-78
2023/03/08 08:18:47;;;;;;;1.08;0.47;;;;;;;21.04;29.99;99708.97;4968074;28;20918;-78
2023/03/08 08:21:14;;;;;;;0.70;0.70;;;;;;;20.99;29.92;99711.44;5019053;28;20161;-77
2023/03/08 08:23:41;;;;;;;0.32;0.32;;;;;;;21.03;29.94;99717.13;4970955;28;20554;-77
2023/03/08 08:26:11;;;;;;;0.80;0.77;;;;;;;20.96;29.90;99703.91;5020738;28;20125;-78
2023/03/08 08:28:40;;;;;;;0.60;0.50;;;;;;;20.98;29.82;99714.28;4977835;28;20041;-77
2023/03/08 08:31:10;;;;;;;0.60;0.60;;;;;;;20.97;30.06;99702.09;5021448;28;20075;-77
2023/03/08 08:33:35;;;;;;;1.33;1.10;;;;;;;21.01;30.12;99709.41;4970607;28;20041;-76
2023/03/08 08:36:07;;;;;;;0.60;0.45;;;;;;;20.98;30.04;99704.50;5014049;28;20068;-77
2023/03/08 08:38:33;;;;;;;0.70;0.70;;;;;;;20.90;30.15;99691.56;4987596;28;20586;-78
2023/03/08 08:41:00;;;;;;;0.90;0.70;;;;;;;20.87;30.18;99693.81;5021498;28;20049;-77
2023/03/08 08:43:27;;;;;;;0.70;0.70;;;;;;;20.95;29.88;99704.94;4975188;28;20060;-77
2023/03/08 08:45:54;;;;;;;0.68;0.68;;;;;;;20.90;30.13;99696.84;5004222;28;20095;-77
2023/03/08 08:48:20;;;;;;;0.82;0.60;;;;;;;20.95;30.10;99698.84;4976541;28;20783;-77
2023/03/08 08:50:46;;;;;;;0.93;0.80;;;;;;;20.81;30.17;99684.88;5019791;28;20044;-76
2023/03/08 08:53:11;;;;;;;0.80;0.80;;;;;;;20.85;30.24;99691.41;4981057;28;20045;-77
2023/03/08 08:55:37;;;;;;;0.90;0.63;;;;;;;20.89;30.02;99695.22;5021886;28;20025;-78
2023/03/08 08:58:04;;;;;;;0.63;0.63;;;;;;;20.91;30.06;99687.88;4961805;28;20037;-77
2023/03/08 09:00:31;;;;;;;0.60;0.60;;;;;;;20.87;30.07;99692.00;5015053;28;20029;-77
2023/03/08 09:02:56;;;;;;;0.50;0.50;;;;;;;20.86;30.24;99687.72;4976437;28;20493;-77
2023/03/08 09:05:22;;;;;;;0.60;0.60;;;;;;;20.88;30.15;99687.50;5004294;28;20064;-77
2023/03/08 09:07:48;;;;;;;0.57;0.52;;;;;;;20.89;30.23;99679.34;4997050;28;20057;-76
2023/03/08 09:10:14;;;;;;;0.70;0.70;;;;;;;20.80;30.13;99675.31;5004273;28;20588;-78
2023/03/08 09:12:41;;;;;;;0.50;0.50;;;;;;;20.84;30.00;99687.13;5017896;28;20125;-77
2023/03/08 09:15:08;;;;;;;0.73;0.73;;;;;;;20.83;30.17;99672.28;4975122;28;20139;-76
2023/03/08 09:17:33;;;;;;;0.85;0.85;;;;;;;20.79;30.39;99671.06;5023715;28;20033;-77
2023/03/08 09:19:59;;;;;;;0.50;0.50;;;;;;;20.85;30.12;99670.22;4973245;28;20052;-77
2023/03/08 09:22:25;;;;;;;0.77;0.77;;;;;;;20.76;30.18;99664.38;5018295;28;20045;-78
2023/03/08 09:24:51;;;;;;;1.27;0.82;;;;;;;20.76;30.49;99664.38;4971244;28;20049;-77
2023/03/08 09:27:16;;;;;;;3.72;1.20;;;;;;;20.74;30.09;99655.84;5016106;28;20057;-77
2023/03/08 09:29:42;;;;;;;2.58;0.90;;;;;;;20.80;30.18;99672.69;4967178;28;20041;-77
2023/03/08 09:32:07;;;;;;;0.73;0.70;;;;;;;20.78;30.20;99664.16;5021055;28;20029;-77
2023/03/08 09:34:33;;;;;;;0.70;0.70;;;;;;;20.78;30.15;99664.97;4964145;28;20156;-77
2023/03/08 09:36:59;;;;;;;1.02;1.00;;;;;;;20.81;30.06;99658.44;5003381;28;20506;-76
2023/03/08 09:39:26;;;;;;;1.25;0.82;;;;;;;20.77;30.18;99654.59;4973196;28;20589;-77
2023/03/08 09:42:01;;;;;;;1.02;0.93;;;;;;;20.73;30.15;99646.28;5018960;28;20517;-77
2023/03/08 09:44:46;;;;;;;1.23;0.70;;;;;;;20.77;30.20;99652.75;4969879;28;20029;-77
2023/03/08 09:47:19;;;;;;;2.03;1.00;;;;;;;20.78;30.13;99654.38;5018088;28;20044;-76
2023/03/08 09:49:49;;;;;;;1.38;1.23;;;;;;;20.70;30.18;99635.31;4973524;28;20116;-76
2023/03/08 09:52:29;;;;;;;;;;;;;;;20.77;30.34;99644.81;5019633;28;20057;-76
2023/03/08 09:54:58;;;;;;;0.90;0.82;;;;;;;20.73;30.30;99642.81;4990522;28;19917;-76
2023/03/08 09:57:33;;;;;;;0.98;0.80;;;;;;;20.72;30.25;99635.91;5019486;28;20031;-78
2023/03/08 10:00:07;;;;;;;0.70;0.65;;;;;;;20.73;30.23;99640.19;4960530;28;20041;-78
2023/03/08 10:03:02;;;;;;;0.75;0.75;;;;;;;20.77;30.15;99644.81;5016068;28;20044;-78
2023/03/08 10:05:39;;;;;;;1.08;1.02;;;;;;;20.74;30.28;99641.78;4972966;28;20029;-78
2023/03/08 10:08:13;;;;;;;2.17;0.80;;;;;;;20.76;30.16;99643.19;5020663;28;20060;-79
2023/03/08 10:10:55;;;;;;;1.08;0.93;;;;;;;20.76;30.19;99643.19;4968861;28;20033;-78
2023/03/08 10:13:58;;;;;;;0.93;0.93;;;;;;;20.72;30.33;99630.63;5019949;28;20056;-78
2023/03/08 10:16:28;;;;;;;0.82;0.77;;;;;;;20.73;30.32;99638.34;4958050;28;21717;-78
2023/03/08 10:18:53;;;;;;;0.75;0.68;;;;;;;20.77;30.27;99642.19;4980291;28;20822;-78
2023/03/08 10:21:22;;;;;;;1.13;1.02;;;;;;;20.75;30.26;99633.66;5012381;28;20033;-78
2023/03/08 10:23:58;;;;;;;1.10;0.85;;;;;;;20.70;30.22;99627.38;5003260;28;20072;-76
2023/03/08 10:26:25;;;;;;;0.75;0.70;;;;;;;20.69;30.31;99615.19;5016035;28;20030;-78
2023/03/08 10:28:53;;;;;;;1.05;1.05;;;;;;;20.73;30.42;99619.81;4988737;28;20110;-78
2023/03/08 10:31:23;;;;;;;0.90;0.82;;;;;;;20.70;30.31;99622.91;5008343;28;20414;-78
2023/03/08 10:33:56;;;;;;;1.08;0.98;;;;;;;20.89;30.20;99628.25;5003343;28;20029;-78
2023/03/08 10:36:23;;;;;;;2.00;0.75;;;;;;;21.15;29.62;99625.38;5010959;28;20055;-78
2023/03/08 10:39:10;;;;;;;0.90;0.60;;;;;;;21.46;29.48;99611.28;4986603;28;20476;-76
2023/03/08 10:41:55;;;;;;;0.95;0.85;;;;;;;21.62;29.04;99604.59;5018945;28;20063;-76
2023/03/08 10:44:51;;;;;;;1.02;0.90;;;;;;;21.73;29.20;99613.66;4975749;28;21107;-76
2023/03/08 10:47:31;;;;;;;0.57;0.43;;;;;;;21.73;28.84;99600.41;5001575;28;20121;-76
2023/03/08 10:50:16;;;;;;;0.80;0.75;;;;;;;21.65;29.08;99599.66;4971461;28;20842;-77
2023/03/08 10:52:46;;;;;;;1.17;0.60;;;;;;;21.56;29.40;99600.19;5019436;28;20103;-76
2023/03/08 10:55:13;;;;;;;;;;;;;;;21.56;29.49;99608.13;4951541;28;20056;-76
2023/03/08 10:57:50;;;;;;;1.15;0.77;;;;;;;21.52;29.24;99602.44;5034330;28;20062;-76
2023/03/08 11:00:19;;;;;;;0.57;0.57;;;;;;;21.48;29.63;99603.13;4938734;28;20033;-75
2023/03/08 11:02:46;;;;;;;1.77;0.80;;;;;;;21.47;29.45;99598.84;5010142;28;20041;-77
2023/03/08 11:05:21;;;;;;;1.40;0.60;;;;;;;21.45;29.63;99601.72;4973133;28;20034;-77
2023/03/08 11:07:53;;;;;;;0.90;0.50;;;;;;;21.37;29.27;99597.53;5018567;28;20038;-76
2023/03/08 11:10:24;;;;;;;0.60;0.38;;;;;;;21.31;29.87;99594.94;4969555;28;20589;-76
2023/03/08 11:13:00;;;;;;;1.10;0.68;;;;;;;21.27;29.64;99583.97;5013266;28;20076;-77
2023/03/08 11:15:29;;;;;;;0.60;0.60;;;;;;;21.30;29.91;99586.19;4972300;28;20052;-77
2023/03/08 11:18:39;;;;;;;1.20;0.70;;;;;;;21.30;29.48;99583.53;5013100;28;20117;-77
2023/03/08 11:21:27;;;;;;;0.70;0.70;;;;;;;21.26;29.94;99590.31;4948814;28;20042;-76
2023/03/08 11:23:56;;;;;;;0.73;0.73;;;;;;;21.23;29.72;99582.78;5014177;28;20041;-77
2023/03/08 11:27:00;;;;;;;0.52;0.52;;;;;;;21.15;29.80;99574.28;4972581;28;20146;-78
2023/03/08 11:30:03;;;;;;;0.50;0.50;;;;;;;21.16;29.77;99582.00;4980799;28;20120;-78
2023/03/08 11:32:54;;;;;;;0.60;0.50;;;;;;;21.13;29.82;99583.25;5001942;28;20034;-77
2023/03/08 11:35:58;;;;;;;1.00;0.90;;;;;;;21.09;29.62;99581.25;4953904;28;20423;-77
2023/03/08 11:38:25;;;;;;;1.40;0.70;;;;;;;21.10;29.82;99574.94;5012667;28;20106;-77
2023/03/08 11:40:51;;;;;;;0.65;0.65;;;;;;;21.08;29.90;99583.09;4975604;28;20045;-78
2023/03/08 11:43:35;;;;;;;0.75;0.65;;;;;;;21.00;30.02;99570.13;5025682;28;20097;-78